createdAt,value
2023-11-02T00:00:10.725Z,96881.94
2023-11-02T00:05:45.985Z,96880.97
2023-11-02T00:10:48.256Z,96876.19
2023-11-02T00:15:50.146Z,96878.00
2023-11-02T00:20:55.678Z,96859.38
2023-11-02T00:25:59.152Z,96846.16
2023-11-02T00:31:02.122Z,96848.56
2023-11-02T00:36:04.352Z,96853.41
2023-11-02T00:41:07.037Z,96830.41
2023-11-02T00:46:09.287Z,96820.63
2023-11-02T00:51:21.889Z,96830.22
2023-11-02T00:56:28.714Z,96811.00
2023-11-02T01:01:30.655Z,96810.22
2023-11-02T01:06:34.486Z,96794.22
2023-11-02T01:11:39.168Z,96778.25
2023-11-02T01:16:42.620Z,96779.28
2023-11-02T01:21:45.158Z,96772.31
2023-11-02T01:27:02.441Z,96758.94
2023-11-02T01:32:04.772Z,96757.19
2023-11-02T01:37:06.706Z,96769.78
2023-11-02T01:42:40.999Z,96766.00
2023-11-02T01:47:54.967Z,96760.44
2023-11-02T01:53:09.087Z,96766.44
2023-11-02T01:58:37.284Z,96758.63
2023-11-02T02:03:50.961Z,96758.84
2023-11-02T02:09:20.788Z,96761.25
2023-11-02T02:14:25.621Z,96758.28
2023-11-02T02:19:45.645Z,96754.28
2023-11-02T02:25:24.702Z,96754.50
2023-11-02T02:30:47.446Z,96748.91
2023-11-02T02:36:15.086Z,96744.13
2023-11-02T02:41:20.809Z,96745.72
2023-11-02T02:46:26.916Z,96733.34
2023-11-02T02:51:30.968Z,96698.41
2023-11-02T02:56:37.263Z,96687.03
2023-11-02T03:01:44.638Z,96694.66
2023-11-02T03:06:50.943Z,96714.41
2023-11-02T03:11:59.092Z,96710.44
2023-11-02T03:17:16.802Z,96702.47
2023-11-02T03:22:24.373Z,96692.69
2023-11-02T03:27:33.940Z,96679.13
2023-11-02T03:33:00.971Z,96668.72
2023-11-02T03:38:06.289Z,96662.94
2023-11-02T03:43:22.448Z,96645.59
2023-11-02T03:48:49.584Z,96649.41
2023-11-02T03:54:44.362Z,96641.28
2023-11-02T03:59:56.865Z,96624.91
2023-11-02T04:05:16.612Z,96630.94
2023-11-02T04:10:23.851Z,96619.78
2023-11-02T04:15:26.133Z,96616.19
2023-11-02T04:20:28.338Z,96595.06
2023-11-02T04:25:31.477Z,96584.28
2023-11-02T04:30:34.103Z,96559.94
2023-11-02T04:35:37.907Z,96547.56
2023-11-02T04:40:42.919Z,96546.00
2023-11-02T04:45:45.105Z,96535.66
2023-11-02T04:50:48.583Z,96529.69
2023-11-02T04:55:50.648Z,96517.72
2023-11-02T05:00:54.358Z,96513.94
2023-11-02T05:05:57.104Z,96515.34
2023-11-02T05:10:59.406Z,96503.38
2023-11-02T05:16:01.560Z,96496.81
2023-11-02T05:21:03.959Z,96476.28
2023-11-02T05:26:07.350Z,96467.13
2023-11-02T05:31:09.655Z,96444.41
2023-11-02T05:36:11.866Z,96444.41
2023-11-02T05:41:14.045Z,96434.63
2023-11-02T05:46:16.185Z,96429.66
2023-11-02T05:51:18.248Z,96426.47
2023-11-02T05:56:20.171Z,96426.09
2023-11-02T06:01:22.145Z,96419.72
2023-11-02T06:06:24.232Z,96420.94
2023-11-02T06:11:27.848Z,96415.94
2023-11-02T06:16:30.080Z,96415.34
2023-11-02T06:21:32.093Z,96424.72
2023-11-02T06:26:34.351Z,96409.16
2023-11-02T06:31:37.607Z,96398.38
2023-11-02T06:36:40.264Z,96404.75
2023-11-02T06:41:42.583Z,96385.78
2023-11-02T06:46:44.974Z,96383.38
2023-11-02T06:51:47.556Z,96370.13
2023-11-02T06:56:49.808Z,96366.34
2023-11-02T07:01:54.254Z,96354.75
2023-11-02T07:06:56.744Z,96347.72
2023-11-02T07:11:58.945Z,96346.47
2023-11-02T07:17:01.130Z,96340.03
2023-11-02T07:22:03.377Z,96320.38
2023-11-02T07:27:06.132Z,96299.59
2023-11-02T07:32:10.245Z,96284.53
2023-11-02T07:37:12.829Z,96291.09
2023-11-02T07:42:15.009Z,96273.09
2023-11-02T07:47:18.823Z,96247.50
2023-11-02T07:52:20.928Z,96244.25
2023-11-02T07:57:23.451Z,96234.00
2023-11-02T08:02:25.553Z,96212.81
2023-11-02T08:07:27.701Z,96211.38
2023-11-02T08:12:30.873Z,96197.38
2023-11-02T08:17:35.387Z,96201.34
2023-11-02T08:22:37.958Z,96193.84
2023-11-02T08:27:40.279Z,96180.78
2023-11-02T08:32:42.474Z,96191.75
2023-11-02T08:37:45.205Z,96180.13
2023-11-02T08:42:48.795Z,96169.72
2023-11-02T08:47:50.928Z,96177.53
2023-11-02T08:52:52.894Z,96163.09
2023-11-02T08:57:55.017Z,96147.84
2023-11-02T09:02:57.284Z,96151.25
2023-11-02T09:07:59.474Z,96142.88
2023-11-02T09:13:02.064Z,96123.09
2023-11-02T09:18:04.226Z,96097.94
2023-11-02T09:23:06.233Z,96095.53
2023-11-02T09:28:09.461Z,96085.34
2023-11-02T09:33:12.485Z,96072.53
2023-11-02T09:38:15.812Z,96063.84
2023-11-02T09:43:20.305Z,96051.06
2023-11-02T09:48:22.410Z,96046.66
2023-11-02T09:53:24.959Z,96022.03
2023-11-02T09:58:28.331Z,96017.34
2023-11-02T10:03:30.474Z,96020.84
2023-11-02T10:08:32.834Z,96012.03
2023-11-02T10:13:34.855Z,96004.13
2023-11-02T10:18:37.370Z,95978.47
2023-11-02T10:23:50.925Z,95955.84
2023-11-02T10:28:55.764Z,95937.88
2023-11-02T10:34:01.275Z,95928.69
2023-11-02T10:39:03.525Z,95923.31
2023-11-02T10:44:08.308Z,95918.84
2023-11-02T10:49:13.016Z,95906.41
2023-11-02T10:54:44.723Z,95891.59
2023-11-02T10:59:48.985Z,95894.28
2023-11-02T11:04:51.950Z,95890.97
2023-11-02T11:09:56.259Z,95875.81
2023-11-02T11:14:59.663Z,95891.44
2023-11-02T11:20:01.821Z,95872.19
2023-11-02T11:25:05.921Z,95872.66
2023-11-02T11:30:23.354Z,95858.63
2023-11-02T11:35:26.628Z,95844.91
2023-11-02T11:40:31.117Z,95842.47
2023-11-02T11:45:36.443Z,95829.38
2023-11-02T11:50:42.738Z,95824.19
2023-11-02T11:55:48.289Z,95831.13
2023-11-02T12:00:50.243Z,95826.06
2023-11-02T12:05:53.554Z,95818.41
2023-11-02T12:11:01.246Z,95814.94
2023-11-02T12:16:05.394Z,95811.47
2023-11-02T12:21:21.739Z,95835.59
2023-11-02T12:26:28.905Z,95834.56
2023-11-02T12:31:35.495Z,95813.28
2023-11-02T12:36:39.688Z,95785.13
2023-11-02T12:41:43.474Z,95765.50
2023-11-02T12:46:49.461Z,95778.75
2023-11-02T12:51:51.512Z,95778.19
2023-11-02T12:56:55.928Z,95779.75
2023-11-02T13:02:01.245Z,95786.00
2023-11-02T13:07:21.256Z,95781.09
2023-11-02T13:12:23.281Z,95773.63
2023-11-02T13:17:26.122Z,95767.88
2023-11-02T13:22:28.221Z,95764.38
2023-11-02T13:27:30.384Z,95766.22
2023-11-02T13:32:32.480Z,95751.63
2023-11-02T13:37:34.997Z,95756.75
2023-11-02T13:42:44.150Z,95773.59
2023-11-02T13:47:49.825Z,95769.44
2023-11-02T13:52:51.876Z,95759.25
2023-11-02T13:57:54.225Z,95750.34
2023-11-02T14:02:57.006Z,95761.78
2023-11-02T14:07:59.305Z,95774.53
2023-11-02T14:13:02.425Z,95769.09
2023-11-02T14:18:06.551Z,95758.94
2023-11-02T14:23:11.289Z,95765.72
2023-11-02T14:28:13.219Z,95737.91
2023-11-02T14:33:16.560Z,95731.03
2023-11-02T14:38:20.788Z,95727.41
2023-11-02T14:43:23.879Z,95720.63
2023-11-02T14:48:25.943Z,95714.31
2023-11-02T14:53:27.920Z,95705.97
2023-11-02T14:58:29.887Z,95707.22
2023-11-02T15:03:33.571Z,95713.78
2023-11-02T15:08:36.180Z,95708.34
2023-11-02T15:13:39.072Z,95706.28
2023-11-02T15:18:43.125Z,95726.63
2023-11-02T15:23:45.506Z,95731.34
2023-11-02T15:28:48.304Z,95720.72
2023-11-02T15:33:50.465Z,95712.59
2023-11-02T15:38:52.637Z,95711.50
2023-11-02T15:43:54.601Z,95708.56
2023-11-02T15:48:56.672Z,95708.25
2023-11-02T15:53:58.629Z,95707.22
2023-11-02T15:59:01.483Z,95696.03
2023-11-02T16:04:03.548Z,95692.72
2023-11-02T16:09:05.899Z,95699.50
2023-11-02T16:14:07.901Z,95707.88
2023-11-02T16:19:10.045Z,95713.06
2023-11-02T16:24:12.447Z,95731.59
2023-11-02T16:29:14.867Z,95746.16
2023-11-02T16:39:26.625Z,95759.41
2023-11-02T16:44:28.961Z,95759.41
2023-11-02T16:49:31.051Z,95748.13
2023-11-02T16:54:33.372Z,95757.19
2023-11-02T16:59:36.702Z,95760.03
2023-11-02T17:04:39.848Z,95763.09
2023-11-02T17:09:41.952Z,95748.44
2023-11-02T17:14:44.206Z,95725.25
2023-11-02T17:19:46.248Z,95714.00
2023-11-02T17:24:48.469Z,95699.25
2023-11-02T17:29:51.330Z,95695.22
2023-11-02T17:34:53.542Z,95686.22
2023-11-02T17:39:55.919Z,95675.50
2023-11-02T17:44:58.746Z,95661.63
2023-11-02T17:50:00.874Z,95660.25
2023-11-02T17:55:03.316Z,95653.94
2023-11-02T18:00:08.309Z,95651.25
2023-11-02T18:05:14.526Z,95642.91
2023-11-02T18:10:16.658Z,95634.88
2023-11-02T18:15:18.609Z,95623.16
2023-11-02T18:20:20.647Z,95640.88
2023-11-02T18:25:23.163Z,95635.13
2023-11-02T18:30:25.554Z,95635.56
2023-11-02T18:35:27.643Z,95613.38
2023-11-02T18:40:30.062Z,95599.50
2023-11-02T18:45:32.114Z,95593.66
2023-11-02T18:50:34.525Z,95578.31
2023-11-02T18:55:37.591Z,95568.16
2023-11-02T19:00:41.946Z,95531.25
2023-11-02T19:05:44.922Z,95539.06
2023-11-02T19:10:46.903Z,95540.06
2023-11-02T19:15:49.826Z,95541.66
2023-11-02T19:20:52.496Z,95535.66
2023-11-02T19:25:55.205Z,95540.63
2023-11-02T19:30:57.466Z,95540.16
2023-11-02T19:36:02.656Z,95550.06
2023-11-02T19:41:04.714Z,95546.47
2023-11-02T19:46:06.663Z,95556.28
2023-11-02T19:51:15.197Z,95562.03
2023-11-02T19:56:17.135Z,95556.84
2023-11-02T20:01:19.157Z,95551.41
2023-11-02T20:06:21.037Z,95548.59
2023-11-02T20:11:23.447Z,95533.88
2023-11-02T20:16:25.357Z,95531.28
2023-11-02T20:21:27.409Z,95514.84
2023-11-02T20:26:29.690Z,95524.59
2023-11-02T20:31:31.621Z,95516.25
2023-11-02T20:36:33.674Z,95497.50
2023-11-02T20:41:35.613Z,95495.94
2023-11-02T20:46:42.134Z,95553.13
2023-11-02T20:51:46.183Z,95563.63
2023-11-02T20:56:48.126Z,95522.63
2023-11-02T21:01:50.469Z,95528.94
2023-11-02T21:06:58.713Z,95548.44
2023-11-02T21:12:03.785Z,95533.09
2023-11-02T21:17:06.185Z,95542.47
2023-11-02T21:22:11.829Z,95555.91
2023-11-02T21:27:15.384Z,95563.63
2023-11-02T21:32:17.334Z,95558.44
2023-11-02T21:37:19.287Z,95554.34
2023-11-02T21:42:21.417Z,95549.22
2023-11-02T21:47:23.587Z,95533.72
2023-11-02T21:52:25.386Z,95529.09
2023-11-02T21:57:27.366Z,95520.75
2023-11-02T22:02:29.303Z,95517.38
2023-11-02T22:07:31.346Z,95536.09
2023-11-02T22:12:33.236Z,95571.19
2023-11-02T22:17:35.218Z,95569.16
2023-11-02T22:22:37.853Z,95540.03
2023-11-02T22:27:39.773Z,95517.84
2023-11-02T22:32:42.897Z,95494.38
2023-11-02T22:37:44.838Z,95488.94
2023-11-02T22:42:47.191Z,95465.03
2023-11-02T22:47:49.371Z,95453.31
2023-11-02T22:52:52.669Z,95460.06
2023-11-02T22:57:55.206Z,95477.00
2023-11-02T23:02:57.125Z,95479.13
2023-11-02T23:07:59.191Z,95409.00
2023-11-02T23:13:01.218Z,95388.69
2023-11-02T23:18:03.901Z,95381.38
2023-11-02T23:23:07.126Z,95414.59
2023-11-02T23:28:09.209Z,95458.72
2023-11-02T23:33:11.274Z,95453.31
2023-11-02T23:38:13.396Z,95437.41
2023-11-02T23:43:17.572Z,95437.09
2023-11-02T23:48:19.764Z,95365.66
2023-11-02T23:53:22.130Z,95327.44
2023-11-02T23:58:24.109Z,95349.47
